Time;durP1;ratioP1;P1;durP2;ratioP2;P2;SDS_P1;SDS_P2;PMS_P1;PMS_P2;Temp;Humidity;BMP_temperature;BMP_pressure;BME280_temperature;BME280_humidity;BME280_pressure;Samples;Min_cycle;Max_cycle;Signal;HPM_P1;HPM_P2
2022/04/25 00:02:06;;;;;;;3.60;2.60;;;;;15.00;100796.00;;;;5050748;28;20201;-82
2022/04/25 00:04:33;;;;;;;5.60;2.80;;;;;15.00;100808.00;;;;5049391;28;20253;-82
2022/04/25 00:07:00;;;;;;;3.22;2.30;;;;;15.00;100804.00;;;;5031742;28;20216;-82
2022/04/25 00:09:27;;;;;;;3.90;2.58;;;;;15.00;100809.00;;;;5038671;28;20214;-83
2022/04/25 00:11:56;;;;;;;4.85;3.03;;;;;15.00;100811.00;;;;5051424;28;20630;-83
2022/04/25 00:14:23;;;;;;;3.30;2.42;;;;;14.90;100805.00;;;;5047045;28;20196;-82
2022/04/25 00:16:55;;;;;;;4.55;2.85;;;;;14.90;100809.00;;;;5045475;28;20196;-82
2022/04/25 00:19:24;;;;;;;3.53;2.72;;;;;14.90;100811.00;;;;5030452;28;20200;-82
2022/04/25 00:21:52;;;;;;;5.78;2.28;;;;;14.90;100811.00;;;;5031315;28;20255;-82
2022/04/25 00:24:19;;;;;;;5.07;2.70;;;;;14.80;100812.00;;;;5030770;28;20203;-82
2022/04/25 00:26:47;;;;;;;5.93;3.17;;;;;14.80;100804.00;;;;5034520;28;20234;-82
2022/04/25 00:29:14;;;;;;;3.38;2.92;;;;;14.80;100809.00;;;;5044843;28;20196;-82
2022/04/25 00:31:41;;;;;;;3.58;2.60;;;;;14.80;100801.00;;;;5049314;28;20215;-83
2022/04/25 00:34:09;;;;;;;5.68;3.10;;;;;14.70;100807.00;;;;5035300;28;20200;-82
2022/04/25 00:36:37;;;;;;;4.45;2.72;;;;;14.70;100803.00;;;;5030893;28;20243;-82
2022/04/25 00:39:04;;;;;;;3.75;2.85;;;;;14.70;100800.00;;;;5030894;28;20219;-82
2022/04/25 00:41:32;;;;;;;5.07;2.88;;;;;14.70;100797.00;;;;5029998;28;20211;-82
2022/04/25 00:43:59;;;;;;;4.43;2.42;;;;;14.70;100798.00;;;;5045747;28;20204;-82
2022/04/25 00:46:27;;;;;;;4.30;3.10;;;;;14.70;100799.00;;;;5045845;28;20228;-82
2022/04/25 00:48:55;;;;;;;3.72;2.83;;;;;14.70;100804.00;;;;5037384;28;20223;-82
2022/04/25 00:51:23;;;;;;;4.88;2.92;;;;;14.60;100802.00;;;;5030405;28;20215;-81
2022/04/25 00:53:51;;;;;;;3.67;2.83;;;;;14.60;100807.00;;;;5030971;28;20192;-82
2022/04/25 00:56:19;;;;;;;3.88;2.90;;;;;14.60;100803.00;;;;5030179;28;20559;-82
2022/04/25 00:58:49;;;;;;;4.07;2.67;;;;;14.60;100804.00;;;;5030534;28;20210;-82
2022/04/25 01:01:17;;;;;;;5.22;2.70;;;;;14.60;100798.00;;;;5045556;28;20231;-82
2022/04/25 01:03:44;;;;;;;4.80;2.70;;;;;14.50;100801.00;;;;5030108;28;20204;-82
2022/04/25 01:06:11;;;;;;;4.03;2.60;;;;;14.50;100802.00;;;;5047429;28;20231;-83
2022/04/25 01:08:39;;;;;;;4.07;2.97;;;;;14.50;100798.00;;;;5048407;28;20226;-82
2022/04/25 01:11:08;;;;;;;5.90;3.58;;;;;14.50;100800.00;;;;5045372;28;20279;-81
2022/04/25 01:13:35;;;;;;;7.93;3.15;;;;;14.50;100797.00;;;;5035121;28;20196;-82
2022/04/25 01:16:02;;;;;;;5.40;3.40;;;;;14.40;100795.00;;;;5031514;28;20212;-81
2022/04/25 01:18:29;;;;;;;4.93;3.08;;;;;14.40;100800.00;;;;5049209;28;20188;-80
2022/04/25 01:20:58;;;;;;;4.45;3.28;;;;;14.40;100798.00;;;;5032411;28;20246;-82
2022/04/25 01:28:58;;;;;;;5.00;3.10;;;;;14.30;100795.00;;;;5044940;28;20229;-82
2022/04/25 01:31:25;;;;;;;5.30;3.50;;;;;14.30;100797.00;;;;5029609;28;20201;-82
2022/04/25 01:33:53;;;;;;;4.00;3.30;;;;;14.30;100796.00;;;;5030053;28;20216;-82
2022/04/25 01:36:23;;;;;;;3.83;3.13;;;;;14.20;100794.00;;;;5029159;28;20246;-82
2022/04/25 01:38:53;;;;;;;4.05;3.25;;;;;14.20;100796.00;;;;5035100;28;20612;-82
2022/04/25 01:41:20;;;;;;;5.72;3.30;;;;;14.20;100797.00;;;;5029201;28;20204;-81
2022/04/25 01:43:48;;;;;;;4.68;3.80;;;;;14.20;100790.00;;;;5044969;28;20207;-80
2022/04/25 01:46:15;;;;;;;6.85;3.65;;;;;14.20;100793.00;;;;5035250;28;20224;-81
2022/04/25 01:48:42;;;;;;;4.15;3.38;;;;;14.20;100798.00;;;;5034145;28;20615;-81
2022/04/25 01:51:11;;;;;;;9.70;3.65;;;;;14.10;100796.00;;;;5030410;28;20689;-81
2022/04/25 01:53:38;;;;;;;5.88;3.92;;;;;14.10;100798.00;;;;5031298;28;20219;-81
2022/04/25 01:56:07;;;;;;;6.50;3.30;;;;;14.10;100787.00;;;;5045808;28;20670;-81
2022/04/25 01:58:35;;;;;;;6.53;3.85;;;;;14.10;100794.00;;;;5049135;28;20219;-81
2022/04/25 02:01:05;;;;;;;5.45;3.45;;;;;14.10;100792.00;;;;5031350;28;20215;-81
2022/04/25 02:03:34;;;;;;;4.88;3.45;;;;;14.10;100784.00;;;;5028922;28;20207;-81
2022/04/25 02:06:02;;;;;;;3.95;3.53;;;;;14.10;100797.00;;;;5034558;28;20195;-81
2022/04/25 02:08:30;;;;;;;5.95;3.80;;;;;14.10;100790.00;;;;5048847;28;20282;-81
2022/04/25 02:13:43;;;;;;;5.50;3.38;;;;;14.00;100788.00;;;;5048670;28;20909;-81
2022/04/25 02:16:11;;;;;;;4.65;3.45;;;;;14.00;100793.00;;;;5048733;28;20203;-81
2022/04/25 02:18:40;;;;;;;6.50;3.60;;;;;14.00;100782.00;;;;5047906;28;20196;-82
2022/04/25 02:21:07;;;;;;;5.57;3.53;;;;;14.00;100777.00;;;;5033030;28;20239;-81
2022/04/25 02:23:36;;;;;;;6.53;3.63;;;;;14.00;100774.00;;;;5041726;28;20206;-81
2022/04/25 02:26:05;;;;;;;6.88;3.90;;;;;14.00;100773.00;;;;5028887;28;20205;-81
2022/04/25 02:28:32;;;;;;;5.60;3.88;;;;;14.00;100777.00;;;;5027931;28;20219;-81
2022/04/25 02:31:01;;;;;;;4.57;3.60;;;;;14.00;100771.00;;;;5044362;28;20278;-81
2022/04/25 02:33:29;;;;;;;5.15;3.88;;;;;14.00;100765.00;;;;5033386;28;20200;-81
2022/04/25 02:35:56;;;;;;;8.90;3.92;;;;;14.00;100768.00;;;;5028281;28;20235;-80
2022/04/25 02:38:23;;;;;;;5.95;3.53;;;;;14.00;100766.00;;;;5027983;28;20230;-81
2022/04/25 02:41:04;;;;;;;8.32;4.30;;;;;13.90;100772.00;;;;5028604;28;20655;-81
2022/04/25 02:43:32;;;;;;;6.57;3.92;;;;;13.90;100769.00;;;;5040330;28;20297;-81
2022/04/25 02:46:04;;;;;;;5.40;3.53;;;;;13.90;100765.00;;;;5048549;28;20222;-81
2022/04/25 02:48:32;;;;;;;5.32;3.60;;;;;13.90;100765.00;;;;5038756;28;20216;-81
2022/04/25 02:51:00;;;;;;;7.40;4.38;;;;;13.90;100771.00;;;;5027655;28;20210;-81
2022/04/25 02:53:27;;;;;;;5.10;3.70;;;;;13.90;100765.00;;;;5027944;28;20697;-81
2022/04/25 02:55:55;;;;;;;6.38;3.92;;;;;13.90;100774.00;;;;5028046;28;20200;-81
2022/04/25 02:58:24;;;;;;;6.18;4.28;;;;;13.90;100779.00;;;;5028200;28;20204;-80
2022/04/25 03:00:52;;;;;;;7.53;4.13;;;;;13.80;100775.00;;;;5031155;28;20254;-81
2022/04/25 03:03:21;;;;;;;5.90;3.63;;;;;13.80;100781.00;;;;5029373;28;20207;-81
2022/04/25 03:05:50;;;;;;;5.00;3.63;;;;;13.80;100776.00;;;;5048282;28;20199;-82
2022/04/25 03:08:19;;;;;;;7.45;3.47;;;;;13.80;100784.00;;;;5048698;28;20227;-82
2022/04/25 03:10:47;;;;;;;6.93;3.70;;;;;13.80;100792.00;;;;5046512;28;20234;-82
2022/04/25 03:13:16;;;;;;;6.80;4.10;;;;;13.80;100792.00;;;;5046706;28;20657;-82
2022/04/25 03:15:46;;;;;;;5.07;4.15;;;;;13.80;100791.00;;;;5047659;28;20657;-82
2022/04/25 03:18:15;;;;;;;7.57;4.13;;;;;13.70;100791.00;;;;5039137;28;20215;-81
2022/04/25 03:20:48;;;;;;;6.75;4.13;;;;;13.70;100787.00;;;;5037845;28;20213;-82
2022/04/25 03:23:15;;;;;;;8.32;5.05;;;;;13.70;100789.00;;;;5046167;28;20199;-83
2022/04/25 03:25:43;;;;;;;5.53;4.03;;;;;13.70;100784.00;;;;5027986;28;20204;-82
2022/04/25 03:28:10;;;;;;;5.85;4.05;;;;;13.70;100790.00;;;;5028122;28;20231;-81
2022/04/25 03:30:37;;;;;;;6.53;4.18;;;;;13.70;100785.00;;;;5036646;28;20263;-82
2022/04/25 03:33:05;;;;;;;7.82;4.20;;;;;13.60;100780.00;;;;5048101;28;20203;-81
2022/04/25 03:35:32;;;;;;;6.25;4.32;;;;;13.60;100779.00;;;;5047606;28;20215;-82
2022/04/25 03:38:02;;;;;;;6.88;4.13;;;;;13.60;100784.00;;;;5048057;28;20232;-82
2022/04/25 03:40:29;;;;;;;6.70;4.20;;;;;13.60;100785.00;;;;5046804;28;20195;-82
2022/04/25 03:42:57;;;;;;;7.38;4.47;;;;;13.60;100781.00;;;;5046562;28;20196;-82
2022/04/25 03:45:24;;;;;;;6.95;4.47;;;;;13.60;100779.00;;;;5037283;28;20201;-81
2022/04/25 03:47:53;;;;;;;8.63;4.32;;;;;13.60;100781.00;;;;5028137;28;20239;-82
2022/04/25 03:50:20;;;;;;;5.13;4.05;;;;;13.60;100781.00;;;;5037108;28;20192;-82
2022/04/25 03:52:47;;;;;;;7.43;4.03;;;;;13.60;100778.00;;;;5028137;28;20196;-82
2022/04/25 03:58:04;;;;;;;7.38;4.55;;;;;13.50;100793.00;;;;5047909;28;20210;-83
2022/04/25 04:00:32;;;;;;;5.97;4.05;;;;;13.50;100796.00;;;;5039021;28;20702;-83
2022/04/25 04:02:59;;;;;;;9.02;4.82;;;;;13.50;100796.00;;;;5027781;28;20192;-83
2022/04/25 04:05:27;;;;;;;5.75;4.30;;;;;13.50;100791.00;;;;5030021;28;20773;-82
2022/04/25 04:07:55;;;;;;;5.30;3.60;;;;;13.50;100801.00;;;;5031627;28;20639;-82
2022/04/25 04:10:24;;;;;;;7.63;4.43;;;;;13.50;100801.00;;;;5036997;28;20199;-82
2022/04/25 04:12:52;;;;;;;5.95;4.03;;;;;13.50;100803.00;;;;5038540;28;20215;-82
2022/04/25 04:15:19;;;;;;;6.20;3.58;;;;;13.50;100810.00;;;;5046285;28;20202;-82
2022/04/25 04:17:46;;;;;;;5.88;3.85;;;;;13.40;100804.00;;;;5043261;28;20204;-82
2022/04/25 04:20:14;;;;;;;6.38;4.35;;;;;13.40;100811.00;;;;5031621;28;20188;-82
2022/04/25 04:22:42;;;;;;;6.35;4.32;;;;;13.40;100820.00;;;;5049740;28;20208;-82
2022/04/25 04:25:12;;;;;;;7.22;4.80;;;;;13.40;100815.00;;;;5036090;28;20249;-82
2022/04/25 04:27:42;;;;;;;6.07;4.28;;;;;13.40;100822.00;;;;5046568;28;20255;-82
2022/04/25 04:30:11;;;;;;;5.78;4.22;;;;;13.50;100820.00;;;;5038175;28;20195;-82
2022/04/25 04:32:40;;;;;;;8.15;4.72;;;;;13.50;100822.00;;;;5029733;28;20227;-82
2022/04/25 04:35:09;;;;;;;5.72;4.07;;;;;13.50;100827.00;;;;5031253;28;20231;-82
2022/04/25 04:37:38;;;;;;;6.40;4.30;;;;;13.60;100828.00;;;;5030252;28;20297;-82
2022/04/25 04:42:54;;;;;;;5.60;4.28;;;;;13.60;100829.00;;;;5040637;28;20237;-80
2022/04/25 04:45:21;;;;;;;6.05;4.47;;;;;13.60;100844.00;;;;5050648;28;20323;-82
2022/04/25 04:47:49;;;;;;;5.63;4.10;;;;;13.70;100847.00;;;;5050131;28;20250;-81
2022/04/25 04:50:17;;;;;;;6.88;4.25;;;;;13.70;100839.00;;;;5032107;28;20215;-82
2022/04/25 04:52:45;;;;;;;9.27;5.15;;;;;13.70;100850.00;;;;5049220;28;20708;-81
2022/04/25 04:55:12;;;;;;;8.98;5.10;;;;;13.80;100851.00;;;;5030911;28;20211;-82
2022/04/25 04:57:40;;;;;;;6.22;4.90;;;;;13.80;100857.00;;;;5029326;28;20196;-82
2022/04/25 05:00:10;;;;;;;7.65;4.43;;;;;13.80;100853.00;;;;5032179;28;20203;-82
2022/04/25 05:02:38;;;;;;;6.82;4.88;;;;;13.90;100855.00;;;;5050295;28;20211;-81
2022/04/25 05:05:06;;;;;;;8.80;5.68;;;;;13.90;100858.00;;;;5050114;28;20210;-81
2022/04/25 05:07:34;;;;;;;6.88;5.18;;;;;14.00;100862.00;;;;5048238;28;20230;-82
2022/04/25 05:10:03;;;;;;;5.85;4.63;;;;;14.00;100864.00;;;;5042276;28;20260;-82
2022/04/25 05:12:30;;;;;;;6.13;4.75;;;;;14.00;100864.00;;;;5048643;28;20666;-82
2022/04/25 05:14:58;;;;;;;11.40;5.22;;;;;14.10;100868.00;;;;5050324;28;20211;-82
2022/04/25 05:17:27;;;;;;;6.72;5.40;;;;;14.10;100876.00;;;;5049585;28;20230;-82
2022/04/25 05:19:54;;;;;;;5.78;4.57;;;;;14.20;100867.00;;;;5043455;28;20350;-82
2022/04/25 05:22:21;;;;;;;7.93;4.97;;;;;14.20;100865.00;;;;5046368;28;20187;-82
2022/04/25 05:24:49;;;;;;;6.55;4.57;;;;;14.30;100875.00;;;;5049756;28;20188;-82
2022/04/25 05:27:16;;;;;;;8.57;4.80;;;;;14.30;100872.00;;;;5049953;28;20278;-83
2022/04/25 05:29:44;;;;;;;8.07;4.82;;;;;14.30;100875.00;;;;5049118;28;20211;-82
2022/04/25 05:32:11;;;;;;;8.30;5.55;;;;;14.40;100876.00;;;;5049154;28;20661;-82
2022/04/25 05:34:40;;;;;;;7.53;5.80;;;;;14.40;100876.00;;;;5049339;28;20196;-81
2022/04/25 05:37:07;;;;;;;8.40;5.30;;;;;14.50;100879.00;;;;5047635;28;20243;-82
2022/04/25 05:39:35;;;;;;;8.90;4.90;;;;;14.50;100875.00;;;;5028699;28;20200;-82
2022/04/25 05:42:02;;;;;;;11.07;5.60;;;;;14.50;100884.00;;;;5029614;28;20204;-81
2022/04/25 05:44:29;;;;;;;8.05;5.32;;;;;14.60;100886.00;;;;5041553;28;20277;-82
2022/04/25 05:46:57;;;;;;;7.28;5.70;;;;;14.60;100889.00;;;;5031987;28;20199;-79
2022/04/25 05:52:10;;;;;;;7.53;5.15;;;;;14.60;100895.00;;;;5029116;28;20199;-80
2022/04/25 05:54:38;;;;;;;6.70;4.88;;;;;14.70;100900.00;;;;5040855;28;20570;-80
2022/04/25 05:57:06;;;;;;;7.20;5.38;;;;;14.70;100899.00;;;;5049691;28;20206;-80
2022/04/25 05:59:33;;;;;;;7.63;5.30;;;;;14.70;100893.00;;;;5045277;28;20260;-80
2022/04/25 06:02:00;;;;;;;10.90;5.57;;;;;14.70;100894.00;;;;5049256;28;20207;-80
2022/04/25 06:04:28;;;;;;;6.35;4.82;;;;;14.80;100898.00;;;;5049228;28;20212;-81
2022/04/25 06:06:55;;;;;;;7.82;5.28;;;;;14.80;100892.00;;;;5048625;28;20215;-82
2022/04/25 06:09:26;;;;;;;6.97;5.47;;;;;14.80;100899.00;;;;5046379;28;20700;-80
2022/04/25 06:11:54;;;;;;;6.57;5.47;;;;;14.80;100907.00;;;;5045281;28;20223;-80
2022/04/25 06:14:22;;;;;;;5.25;4.65;;;;;14.90;100912.00;;;;5034979;28;20207;-80
2022/04/25 06:16:49;;;;;;;6.45;5.35;;;;;14.90;100918.00;;;;5046663;28;20765;-81
2022/04/25 06:19:17;;;;;;;6.30;4.93;;;;;14.90;100919.00;;;;5042441;28;20192;-81
2022/04/25 06:21:44;;;;;;;8.40;6.38;;;;;14.90;100924.00;;;;5034838;28;20200;-82
2022/04/25 06:24:11;;;;;;;8.52;5.57;;;;;15.00;100923.00;;;;5031405;28;20203;-81
2022/04/25 06:26:40;;;;;;;8.18;5.82;;;;;15.00;100922.00;;;;5032941;28;20207;-83
2022/04/25 06:29:07;;;;;;;9.82;5.80;;;;;15.00;100930.00;;;;5035244;28;20224;-82
2022/04/25 06:31:34;;;;;;;7.95;5.68;;;;;15.00;100924.00;;;;5028316;28;20200;-81
2022/04/25 06:34:07;;;;;;;7.20;5.78;;;;;15.00;100929.00;;;;5038863;28;20246;-82
2022/04/25 06:36:36;;;;;;;6.90;5.75;;;;;15.00;100934.00;;;;5030772;28;20681;-83
2022/04/25 06:39:03;;;;;;;6.95;5.72;;;;;15.10;100925.00;;;;5029077;28;20200;-83
2022/04/25 06:41:32;;;;;;;9.75;6.38;;;;;15.10;100932.00;;;;5033870;28;20648;-81
2022/04/25 06:44:01;;;;;;;7.40;5.57;;;;;15.00;100932.00;;;;5035991;28;20542;-81
2022/04/25 06:46:29;;;;;;;7.60;5.80;;;;;15.00;100930.00;;;;5034699;28;20196;-82
2022/04/25 06:51:53;;;;;;;7.70;5.68;;;;;15.10;100932.00;;;;4938398;28;20254;-81
2022/04/25 06:54:21;;;;;;;8.82;6.32;;;;;15.10;100937.00;;;;5011271;28;20288;-82
2022/04/25 06:56:48;;;;;;;10.13;6.25;;;;;15.10;100947.00;;;;5041835;28;20761;-81
2022/04/25 06:59:19;;;;;;;9.88;7.00;;;;;15.10;100944.00;;;;5044676;28;20202;-79
2022/04/25 07:01:46;;;;;;;9.05;5.97;;;;;15.20;100948.00;;;;5037900;28;20249;-83
2022/04/25 07:04:14;;;;;;;8.93;6.10;;;;;15.20;100953.00;;;;5038197;28;20211;-81
2022/04/25 07:06:42;;;;;;;9.52;6.18;;;;;15.20;100947.00;;;;5026716;28;20667;-81
2022/04/25 07:09:12;;;;;;;10.15;7.18;;;;;15.20;100954.00;;;;5033805;28;20227;-81
2022/04/25 07:11:44;;;;;;;7.38;6.00;;;;;15.20;100950.00;;;;5036497;28;20331;-81
2022/04/25 07:14:12;;;;;;;8.80;6.50;;;;;15.20;100949.00;;;;5041022;28;20304;-82
2022/04/25 07:16:44;;;;;;;11.30;7.03;;;;;15.20;100956.00;;;;5034394;28;20215;-81
2022/04/25 07:19:12;;;;;;;8.57;7.07;;;;;15.30;100957.00;;;;5043264;28;20629;-81
2022/04/25 07:29:54;;;;;;;8.73;6.10;;;;;15.30;100961.00;;;;5037060;28;20229;-81
2022/04/25 07:32:23;;;;;;;7.80;6.05;;;;;15.30;100960.00;;;;5038412;28;20223;-82
2022/04/25 07:34:52;;;;;;;6.90;5.35;;;;;15.40;100967.00;;;;5035947;28;20196;-81
2022/04/25 07:37:22;;;;;;;9.70;5.93;;;;;15.40;100963.00;;;;5031071;28;20223;-82
2022/04/25 07:39:51;;;;;;;7.22;6.03;;;;;15.40;100959.00;;;;5036144;28;20204;-82
2022/04/25 07:42:19;;;;;;;8.35;5.63;;;;;15.40;100968.00;;;;5036976;28;20188;-82
2022/04/25 07:44:46;;;;;;;7.05;5.53;;;;;15.40;100973.00;;;;5039369;28;20291;-82
2022/04/25 07:47:13;;;;;;;6.20;5.13;;;;;15.40;100965.00;;;;5045555;28;20199;-82
2022/04/25 07:49:43;;;;;;;8.32;6.22;;;;;15.40;100974.00;;;;5035772;28;20227;-83
2022/04/25 07:52:10;;;;;;;7.32;5.93;;;;;15.40;100975.00;;;;5042925;28;20219;-82
2022/04/25 07:54:44;;;;;;;7.88;5.75;;;;;15.40;100976.00;;;;5047112;28;20199;-83
2022/04/25 07:57:11;;;;;;;7.45;5.72;;;;;15.40;100974.00;;;;5040339;28;20213;-80
2022/04/25 07:59:38;;;;;;;8.80;5.72;;;;;15.40;100975.00;;;;5044226;28;20196;-82
2022/04/25 08:02:06;;;;;;;8.95;5.30;;;;;15.40;100973.00;;;;5046828;28;20207;-81
2022/04/25 08:04:33;;;;;;;7.80;5.50;;;;;15.40;100981.00;;;;5050326;28;20199;-83
2022/04/25 08:07:02;;;;;;;7.93;5.72;;;;;15.40;100981.00;;;;5045986;28;20195;-81
2022/04/25 08:09:29;;;;;;;6.45;5.43;;;;;15.40;100976.00;;;;5050994;28;21034;-82
2022/04/25 08:20:11;;;;;;;7.38;6.05;;;;;15.40;100983.00;;;;5003345;28;20223;-81
2022/04/25 08:22:40;;;;;;;7.03;5.40;;;;;15.40;100978.00;;;;5032143;28;20274;-82
2022/04/25 08:25:09;;;;;;;7.15;4.85;;;;;15.50;100992.00;;;;5031567;28;20204;-80
2022/04/25 08:27:36;;;;;;;6.63;5.57;;;;;15.50;101001.00;;;;5045827;28;20207;-82
2022/04/25 08:30:04;;;;;;;6.05;4.78;;;;;15.50;101003.00;;;;5047903;28;20302;-84
2022/04/25 08:32:33;;;;;;;8.32;5.70;;;;;15.60;101006.00;;;;5045918;28;20222;-81
2022/04/25 08:35:00;;;;;;;6.28;4.93;;;;;15.60;101008.00;;;;5043733;28;20283;-80
2022/04/25 08:37:28;;;;;;;7.15;5.47;;;;;15.60;101006.00;;;;5039218;28;20705;-80
2022/04/25 08:39:56;;;;;;;8.00;5.65;;;;;15.60;101014.00;;;;5051065;28;20207;-81
2022/04/25 08:42:23;;;;;;;7.50;5.53;;;;;15.60;101022.00;;;;5049059;28;20195;-81
2022/04/25 08:44:53;;;;;;;6.25;5.35;;;;;15.60;101024.00;;;;5050598;28;20202;-82
2022/04/25 08:47:21;;;;;;;6.82;5.45;;;;;15.60;101023.00;;;;5055265;28;20192;-83
2022/04/25 08:49:49;;;;;;;7.70;5.97;;;;;15.60;101030.00;;;;5047965;28;20226;-82
2022/04/25 08:52:18;;;;;;;6.38;5.50;;;;;15.60;101033.00;;;;5041397;28;20200;-82
2022/04/25 08:54:47;;;;;;;6.57;5.20;;;;;15.60;101033.00;;;;5042034;28;20202;-82
2022/04/25 08:57:17;;;;;;;7.10;5.18;;;;;15.60;101031.00;;;;5041376;28;20211;-82
2022/04/25 08:59:46;;;;;;;8.27;6.63;;;;;15.60;101035.00;;;;5040978;28;20242;-82
2022/04/25 09:02:14;;;;;;;7.32;5.63;;;;;15.60;101037.00;;;;5041796;28;20204;-81
2022/04/25 09:04:44;;;;;;;7.57;5.82;;;;;15.60;101046.00;;;;5043680;28;20198;-83
2022/04/25 09:07:12;;;;;;;8.13;5.13;;;;;15.60;101043.00;;;;5053579;28;20287;-84
2022/04/25 09:09:40;;;;;;;5.93;5.30;;;;;15.60;101049.00;;;;5046193;28;20324;-82
2022/04/25 09:12:11;;;;;;;6.47;5.43;;;;;15.60;101062.00;;;;5037558;28;20203;-84
2022/04/25 09:14:41;;;;;;;5.18;4.45;;;;;15.50;101069.00;;;;5031506;28;20207;-83
2022/04/25 09:17:08;;;;;;;5.25;4.28;;;;;15.50;101072.00;;;;5048125;28;20200;-83
2022/04/25 09:19:37;;;;;;;6.45;4.90;;;;;15.50;101076.00;;;;5051955;28;20188;-80
2022/04/25 09:22:09;;;;;;;6.57;5.03;;;;;15.50;101061.00;;;;5050137;28;20636;-80
2022/04/25 09:24:44;;;;;;;6.97;5.18;;;;;15.50;101063.00;;;;5033809;28;20196;-81
2022/04/25 09:27:13;;;;;;;9.70;5.35;;;;;15.60;101063.00;;;;5038417;28;20242;-81
2022/04/25 09:29:42;;;;;;;8.07;5.85;;;;;15.50;101065.00;;;;5035863;28;20597;-81
2022/04/25 09:32:10;;;;;;;10.07;5.22;;;;;15.60;101071.00;;;;5033946;28;20192;-80
2022/04/25 09:37:49;;;;;;;8.80;6.70;;;;;15.60;101067.00;;;;5036942;28;21050;-79
2022/04/25 09:40:21;;;;;;;7.05;5.18;;;;;15.70;101070.00;;;;5018147;28;20200;-79
2022/04/25 09:42:48;;;;;;;7.43;5.18;;;;;15.80;101069.00;;;;5037580;28;20198;-79
2022/04/25 09:45:20;;;;;;;9.15;6.35;;;;;15.80;101076.00;;;;5042937;28;20662;-80
2022/04/25 09:47:50;;;;;;;6.35;5.05;;;;;15.90;101070.00;;;;5035821;28;20235;-79
2022/04/25 09:50:17;;;;;;;6.50;5.30;;;;;16.00;101070.00;;;;5047149;28;20292;-81
2022/04/25 09:52:54;;;;;;;8.82;6.70;;;;;16.00;101075.00;;;;5035183;28;20204;-80
2022/04/25 09:55:22;;;;;;;9.20;5.93;;;;;16.10;101073.00;;;;5034806;28;20207;-80
2022/04/25 09:57:50;;;;;;;6.15;5.28;;;;;16.10;101082.00;;;;5041806;28;20204;-80
2022/04/25 10:00:36;;;;;;;7.03;5.60;;;;;16.10;101084.00;;;;5037448;28;20200;-78
2022/04/25 10:03:04;;;;;;;7.70;5.97;;;;;16.20;101087.00;;;;5035074;28;20208;-78
2022/04/25 10:05:40;;;;;;;8.13;5.85;;;;;16.20;101093.00;;;;5032889;28;20214;-79
2022/04/25 10:08:09;;;;;;;10.88;6.30;;;;;16.30;101084.00;;;;5035441;28;20728;-79
2022/04/25 10:10:41;;;;;;;7.47;5.85;;;;;16.30;101088.00;;;;5049110;28;20216;-80
2022/04/25 10:13:10;;;;;;;9.23;5.70;;;;;16.50;101095.00;;;;5049920;28;20904;-81
2022/04/25 10:15:39;;;;;;;7.20;5.40;;;;;16.50;101094.00;;;;5046707;28;20199;-79
2022/04/25 10:18:10;;;;;;;9.57;6.18;;;;;16.50;101100.00;;;;5035859;28;20319;-80
2022/04/25 10:20:38;;;;;;;9.40;6.30;;;;;16.60;101108.00;;;;5031179;28;20279;-79
2022/04/25 10:23:08;;;;;;;10.23;7.00;;;;;16.60;101105.00;;;;5034107;28;20204;-81
2022/04/25 10:25:36;;;;;;;9.60;6.28;;;;;16.60;101107.00;;;;5048230;28;20761;-80
2022/04/25 10:28:09;;;;;;;7.85;5.95;;;;;16.60;101107.00;;;;5033772;28;20643;-80
2022/04/25 10:30:40;;;;;;;8.77;6.30;;;;;16.60;101111.00;;;;5045312;28;20230;-82
2022/04/25 10:33:16;;;;;;;7.07;5.63;;;;;16.60;101118.00;;;;5030922;28;20207;-82
2022/04/25 10:35:43;;;;;;;8.82;6.05;;;;;16.70;101113.00;;;;5038031;28;20350;-83
2022/04/25 10:38:48;;;;;;;7.50;5.93;;;;;16.70;101120.00;;;;5036014;28;20243;-82
2022/04/25 10:44:46;;;;;;;8.40;5.78;;;;;16.80;101120.00;;;;5040470;28;21130;-81
2022/04/25 10:47:17;;;;;;;6.93;5.78;;;;;16.90;101117.00;;;;5039255;28;20680;-80
2022/04/25 10:49:46;;;;;;;10.27;6.82;;;;;16.90;101127.00;;;;5037575;28;20223;-80
2022/04/25 10:52:53;;;;;;;7.82;6.40;;;;;16.80;101122.00;;;;5033228;28;20208;-80
2022/04/25 10:55:43;;;;;;;10.38;6.30;;;;;16.90;101126.00;;;;5040858;28;20199;-81
2022/04/25 10:58:18;;;;;;;7.72;5.85;;;;;16.80;101122.00;;;;5035299;28;20576;-80
2022/04/25 11:00:56;;;;;;;8.60;6.40;;;;;16.80;101131.00;;;;5030925;28;20354;-81
2022/04/25 11:03:32;;;;;;;7.70;6.10;;;;;16.80;101121.00;;;;5027421;28;20202;-79
2022/04/25 11:06:25;;;;;;;7.22;5.80;;;;;16.90;101128.00;;;;5045115;28;20207;-81
2022/04/25 11:08:53;;;;;;;5.72;5.13;;;;;17.00;101135.00;;;;5032535;28;20279;-80
2022/04/25 11:11:24;;;;;;;11.23;7.30;;;;;17.10;101136.00;;;;5034681;28;20385;-79
2022/04/25 11:14:17;;;;;;;9.35;6.72;;;;;17.00;101135.00;;;;5038089;28;20196;-80
2022/04/25 11:17:06;;;;;;;8.05;6.25;;;;;17.10;101136.00;;;;5042642;28;20199;-79
2022/04/25 11:19:51;;;;;;;8.23;6.25;;;;;17.20;101137.00;;;;5042166;28;20239;-82
2022/04/25 11:22:51;;;;;;;10.43;6.38;;;;;17.10;101143.00;;;;5031332;28;20204;-81
2022/04/25 11:25:39;;;;;;;7.35;6.13;;;;;17.20;101146.00;;;;5042625;28;20270;-81
2022/04/25 11:28:11;;;;;;;7.75;5.95;;;;;17.30;101155.00;;;;5035006;28;20188;-80
2022/04/25 11:30:39;;;;;;;6.78;4.93;;;;;17.20;101150.00;;;;5040521;28;20232;-81
2022/04/25 11:33:08;;;;;;;8.05;5.90;;;;;17.20;101149.00;;;;5039546;28;20192;-82
2022/04/25 11:35:39;;;;;;;6.30;5.20;;;;;17.20;101159.00;;;;5039828;28;20263;-82
2022/04/25 11:38:06;;;;;;;8.60;5.50;;;;;17.20;101154.00;;;;5028679;28;20234;-82
2022/04/25 11:40:34;;;;;;;7.47;5.97;;;;;17.20;101158.00;;;;5035464;28;20196;-82
2022/04/25 11:43:03;;;;;;;6.45;5.13;;;;;17.20;101154.00;;;;5042945;28;20215;-83
2022/04/25 11:45:32;;;;;;;6.32;5.18;;;;;17.20;101169.00;;;;5036169;28;20199;-83
2022/04/25 11:48:00;;;;;;;9.10;5.45;;;;;17.20;101165.00;;;;5041175;28;20202;-83
2022/04/25 11:50:28;;;;;;;7.57;5.28;;;;;17.20;101170.00;;;;5045692;28;20717;-83
2022/04/25 11:52:57;;;;;;;7.40;5.93;;;;;17.20;101165.00;;;;5034386;28;20205;-83
2022/04/25 11:55:35;;;;;;;8.55;6.00;;;;;17.10;101170.00;;;;5046958;28;20257;-82
2022/04/25 11:58:08;;;;;;;8.93;5.70;;;;;17.20;101163.00;;;;5050535;28;20700;-85
2022/04/25 12:00:36;;;;;;;8.80;6.05;;;;;17.20;101173.00;;;;5036156;28;20219;-84
2022/04/25 12:03:03;;;;;;;7.25;5.93;;;;;17.20;101169.00;;;;5041279;28;20223;-84
2022/04/25 12:05:32;;;;;;;7.93;5.75;;;;;17.20;101168.00;;;;5032970;28;20287;-85
2022/04/25 12:16:18;;;;;;;8.77;6.07;;;;;17.20;101173.00;;;;5049822;28;20727;-83
2022/04/25 12:18:50;;;;;;;8.10;6.07;;;;;17.20;101173.00;;;;5031565;28;20192;-83
2022/04/25 12:21:18;;;;;;;7.63;5.90;;;;;17.30;101172.00;;;;5041237;28;20254;-84
2022/04/25 12:23:55;;;;;;;6.53;5.40;;;;;17.20;101172.00;;;;5051649;28;20202;-84
2022/04/25 12:26:24;;;;;;;7.47;5.68;;;;;17.30;101179.00;;;;5049386;28;20205;-84
2022/04/25 12:28:53;;;;;;;9.93;6.43;;;;;17.30;101178.00;;;;5050605;28;20616;-83
2022/04/25 12:31:21;;;;;;;9.27;6.90;;;;;17.30;101180.00;;;;5047237;28;20234;-83
2022/04/25 12:33:51;;;;;;;10.10;7.25;;;;;17.30;101179.00;;;;5032233;28;20207;-82
2022/04/25 12:36:20;;;;;;;8.65;5.65;;;;;17.30;101184.00;;;;5051254;28;20339;-84
2022/04/25 12:38:54;;;;;;;8.13;6.30;;;;;17.30;101184.00;;;;5040867;28;20195;-83
2022/04/25 12:41:24;;;;;;;8.98;6.40;;;;;17.40;101184.00;;;;5032378;28;20202;-82
2022/04/25 12:43:54;;;;;;;11.93;6.90;;;;;17.30;101184.00;;;;5039283;28;20199;-82
2022/04/25 12:46:42;;;;;;;11.57;6.40;;;;;17.20;101186.00;;;;5049724;28;20250;-82
2022/04/25 12:49:12;;;;;;;7.10;5.70;;;;;17.30;101193.00;;;;5045133;28;20290;-82
2022/04/25 12:51:58;;;;;;;8.73;6.00;;;;;17.20;101190.00;;;;5049873;28;20203;-83
2022/04/25 12:54:30;;;;;;;8.38;6.05;;;;;17.20;101193.00;;;;5043086;28;20204;-83
2022/04/25 12:57:15;;;;;;;7.88;6.22;;;;;17.20;101195.00;;;;5041079;28;20257;-83
2022/04/25 12:59:44;;;;;;;8.13;5.93;;;;;17.30;101194.00;;;;5045384;28;20638;-83
2022/04/25 13:02:14;;;;;;;7.65;6.07;;;;;17.30;101196.00;;;;5038675;28;20197;-81
2022/04/25 13:04:52;;;;;;;8.30;6.28;;;;;17.20;101194.00;;;;5038025;28;20210;-83
2022/04/25 13:07:20;;;;;;;7.57;5.65;;;;;17.30;101195.00;;;;5035150;28;20713;-83
2022/04/25 13:09:49;;;;;;;7.22;5.93;;;;;17.30;101194.00;;;;5045337;28;20228;-82
2022/04/25 13:12:19;;;;;;;9.27;6.85;;;;;17.40;101197.00;;;;5049693;28;20603;-81